Aérodrome :
LOGIN :

S'inscrire | Disclaimer

   EN    FR    IT 

 










Légende :    VFR   VFR Marginal   IFR   IFR Intensif   IFR Très Intensif
Visi : 
Plafond : 
>= 8 km
>= 3000ft
5 à 8 km
1000 à 3000 ft
1500m à 5 km
500 à 1000 ft
800 à 1500m
200 à 500 ft
< 800m
< 200 ft
Symboles :   Orages  Brouillard  Fortes neiges  Fortes précipitations  Vent > 20 kt
SIGMETs :   Divers  Orages  Givrage  Turbulence  Onde Orograph.  Cendres Volcan.







- Altitude de l'aérodrome : 100 ft


EBDT - Schaffen

DERNIER METAR :
  • 191725Z AUTO 04012KT 9999 OVC095/// 05/00 Q1014 BLU

METARs EXPIRÉS :
  • 191655Z AUTO 05011KT 9999 FEW044/// BKN095/// 05/M00 Q1015 BLU
  • 191625Z AUTO 05013KT 9999 FEW032/// SCT060/// OVC095/// 05/00 Q1015 BLU
  • 191555Z AUTO 05011KT 9999 FEW050/// OVC100/// 06/M00 Q1015 BLU
  • 191525Z AUTO 05009KT 9999 FEW026/// SCT050/// BKN090/// 06/00 Q1015 BLU
  • 191455Z AUTO 05014KT 9999 FEW030/// SCT050/// 06/00 Q1015 BLU

TAF TAF EBDT
Valide du 19 à 13h jusqu'au 19 à 22h UTC


191141Z 1913/1922 05013G25KT 9999 BKN016
PROB40
TEMPO 1913/1922 06015G32KT -SHRA BKN015
Pas de NOTAMs connus pour ce terrain.



MET'MAP, la Météo Aéronautique d'un coup d'oeil ! - Copyright ORBIFLY Décembre 2007 - Disclaimer

ORBIFLY MET'MAP TEAM :

Programmation & Développement : Alexandra Zaïnal
Conception & Développement : Baudouin d'Aumeries
Co-Programmation & Développement : Marc-Olivier Méhu
Soutien technique & logistique : Manuel Goepfert

Contact : metmap@orbifly.com




SOURCES & CREDITS :

   NOAA